createdAt,value
2019-03-21T00:01:04.789Z,8.38
2019-03-21T00:03:33.362Z,8.40
2019-03-21T00:06:02.037Z,8.39
2019-03-21T00:08:30.704Z,8.42
2019-03-21T00:11:08.043Z,8.40
2019-03-21T00:13:36.587Z,8.40
2019-03-21T00:16:07.813Z,8.40
2019-03-21T00:18:38.151Z,8.35
2019-03-21T00:21:06.667Z,8.37
2019-03-21T00:23:35.136Z,8.36
2019-03-21T00:26:03.711Z,8.37
2019-03-21T00:28:32.176Z,8.35
2019-03-21T00:31:00.659Z,8.35
2019-03-21T00:33:29.149Z,8.31
2019-03-21T00:35:57.611Z,8.27
2019-03-21T00:38:28.842Z,8.27
2019-03-21T00:40:57.399Z,8.25
2019-03-21T00:43:25.956Z,8.24
2019-03-21T00:45:54.434Z,8.27
2019-03-21T00:48:22.928Z,8.24
2019-03-21T00:50:51.429Z,8.26
2019-03-21T00:53:19.966Z,8.26
2019-03-21T00:55:54.558Z,8.23
2019-03-21T00:58:23.094Z,8.27
2019-03-21T01:00:58.129Z,8.27
2019-03-21T01:03:26.626Z,8.28
2019-03-21T01:05:55.268Z,8.29
2019-03-21T01:08:23.724Z,8.29
2019-03-21T01:10:52.762Z,8.28
2019-03-21T01:13:21.683Z,8.32
2019-03-21T01:15:50.154Z,8.34
2019-03-21T01:18:19.022Z,8.35
2019-03-21T01:20:47.505Z,8.32
2019-03-21T01:23:16.025Z,8.33
2019-03-21T01:25:59.336Z,8.34
2019-03-21T01:28:27.838Z,8.36
2019-03-21T01:30:56.386Z,8.35
2019-03-21T01:33:24.867Z,8.36
2019-03-21T01:35:53.346Z,8.37
2019-03-21T01:38:21.866Z,8.36
2019-03-21T01:40:53.533Z,8.37
2019-03-21T01:43:22.742Z,8.41
2019-03-21T01:45:51.226Z,8.40
2019-03-21T01:48:19.750Z,8.39
2019-03-21T01:50:48.320Z,8.35
2019-03-21T01:53:16.793Z,8.33
2019-03-21T01:55:45.380Z,8.35
2019-03-21T01:58:14.430Z,8.38
2019-03-21T02:00:45.652Z,8.37
2019-03-21T02:03:14.113Z,8.36
2019-03-21T02:05:42.607Z,8.34
2019-03-21T02:08:11.133Z,8.33
2019-03-21T02:10:39.714Z,8.33
2019-03-21T02:13:08.281Z,8.31
2019-03-21T02:15:36.765Z,8.32
2019-03-21T02:18:05.786Z,8.32
2019-03-21T02:20:34.266Z,8.33
2019-03-21T02:23:02.732Z,8.30
2019-03-21T02:25:34.290Z,8.28
2019-03-21T02:28:02.829Z,8.31
2019-03-21T02:30:45.807Z,8.30
2019-03-21T02:33:17.244Z,8.24
2019-03-21T02:35:45.873Z,8.36
2019-03-21T02:38:14.486Z,8.33
2019-03-21T02:40:44.417Z,8.31
2019-03-21T02:43:12.956Z,8.24
2019-03-21T02:45:41.499Z,8.24
2019-03-21T02:48:10.020Z,8.25
2019-03-21T02:50:41.088Z,8.24
2019-03-21T02:53:09.724Z,8.24
2019-03-21T02:55:38.257Z,8.25
2019-03-21T02:58:06.867Z,8.28
2019-03-21T03:00:36.804Z,8.27
2019-03-21T03:03:07.541Z,8.30
2019-03-21T03:05:36.666Z,8.32
2019-03-21T03:08:06.460Z,8.33
2019-03-21T03:10:44.011Z,8.35
2019-03-21T03:13:12.658Z,8.33
2019-03-21T03:15:42.204Z,8.33
2019-03-21T03:18:15.668Z,8.32
2019-03-21T03:20:44.146Z,8.35
2019-03-21T03:23:13.394Z,8.34
2019-03-21T03:25:41.894Z,8.36
2019-03-21T03:28:22.107Z,8.34
2019-03-21T03:30:55.781Z,8.34
2019-03-21T03:33:24.265Z,8.38
2019-03-21T03:35:52.817Z,8.37
2019-03-21T03:38:21.397Z,8.35
2019-03-21T03:41:04.744Z,8.30
2019-03-21T03:43:33.345Z,8.30
2019-03-21T03:46:01.967Z,8.31
2019-03-21T03:48:31.726Z,8.29
2019-03-21T03:51:00.203Z,8.29
2019-03-21T03:53:28.666Z,8.27
2019-03-21T03:55:57.142Z,8.31
2019-03-21T03:58:28.674Z,8.28
2019-03-21T04:00:57.583Z,8.26
2019-03-21T04:03:27.801Z,8.27
2019-03-21T04:05:56.477Z,8.29
2019-03-21T04:08:24.977Z,8.25
2019-03-21T04:10:58.203Z,8.24
2019-03-21T04:13:26.670Z,8.28
2019-03-21T04:15:55.272Z,8.28
2019-03-21T04:18:25.211Z,8.27
2019-03-21T04:21:13.934Z,8.25
2019-03-21T04:23:42.430Z,8.25
2019-03-21T04:26:18.481Z,8.24
2019-03-21T04:28:46.889Z,8.27
2019-03-21T04:31:15.382Z,8.27
2019-03-21T04:33:45.505Z,8.27
2019-03-21T04:36:14.115Z,8.34
2019-03-21T04:38:42.756Z,8.29
2019-03-21T04:41:11.248Z,8.36
2019-03-21T04:43:39.740Z,8.32
2019-03-21T04:46:08.201Z,8.31
2019-03-21T04:48:36.718Z,8.33
2019-03-21T04:51:05.314Z,8.32
2019-03-21T04:53:33.814Z,8.32
2019-03-21T04:56:02.304Z,8.32
2019-03-21T04:58:31.184Z,8.31
2019-03-21T05:01:00.059Z,8.28
2019-03-21T05:03:30.070Z,8.29
2019-03-21T05:05:58.564Z,8.29
2019-03-21T05:08:27.044Z,8.30
2019-03-21T05:10:55.718Z,8.31
2019-03-21T05:13:24.201Z,8.32
2019-03-21T05:15:54.112Z,8.28
2019-03-21T05:18:48.977Z,8.31
2019-03-21T05:21:20.400Z,8.34
2019-03-21T05:23:48.879Z,8.32
2019-03-21T05:26:17.344Z,8.36
2019-03-21T05:28:45.844Z,8.38
2019-03-21T05:31:17.991Z,8.39
2019-03-21T05:33:46.526Z,8.39
2019-03-21T05:36:14.982Z,8.39
2019-03-21T05:38:43.449Z,8.42
2019-03-21T05:41:11.927Z,8.44
2019-03-21T05:43:46.629Z,8.45
2019-03-21T05:46:25.721Z,8.44
2019-03-21T05:48:44.516Z,8.39
2019-03-21T05:51:13.003Z,8.46
2019-03-21T05:53:41.479Z,8.47
2019-03-21T05:56:10.024Z,8.44
2019-03-21T05:58:38.515Z,8.47
2019-03-21T06:01:11.839Z,8.46
2019-03-21T06:03:50.473Z,8.47
2019-03-21T06:06:30.601Z,8.50
2019-03-21T06:08:59.088Z,8.52
2019-03-21T06:11:28.097Z,8.49
2019-03-21T06:13:56.583Z,8.51
2019-03-21T06:16:25.063Z,8.55
2019-03-21T06:19:05.733Z,8.53
2019-03-21T06:21:37.272Z,8.55
2019-03-21T06:24:20.673Z,8.58
2019-03-21T06:27:14.343Z,8.56
2019-03-21T06:29:39.802Z,8.56
2019-03-21T06:32:08.286Z,8.58
2019-03-21T06:34:36.735Z,8.58
2019-03-21T06:37:05.379Z,8.59
2019-03-21T06:39:34.241Z,8.60
2019-03-21T06:42:04.399Z,8.61
2019-03-21T06:44:32.867Z,8.64
2019-03-21T06:47:01.367Z,8.64
2019-03-21T06:49:35.413Z,8.69
2019-03-21T06:52:03.968Z,8.75
2019-03-21T06:54:38.405Z,8.70
2019-03-21T06:57:06.962Z,8.71
2019-03-21T06:59:35.546Z,8.67
2019-03-21T07:02:04.080Z,8.72
2019-03-21T07:04:32.565Z,8.74
2019-03-21T07:07:08.094Z,8.72
2019-03-21T07:09:31.216Z,8.80
2019-03-21T07:11:59.850Z,8.76
2019-03-21T07:14:28.329Z,8.84
2019-03-21T07:17:00.708Z,8.87
2019-03-21T07:19:27.006Z,8.89
2019-03-21T07:21:55.491Z,8.86
2019-03-21T07:24:23.957Z,8.91
2019-03-21T07:26:52.445Z,8.95
2019-03-21T07:29:20.923Z,8.95
2019-03-21T07:31:49.559Z,8.91
2019-03-21T07:34:18.269Z,8.96
2019-03-21T07:36:46.740Z,8.97
2019-03-21T07:39:15.563Z,8.94
2019-03-21T07:41:44.059Z,8.97
2019-03-21T07:44:13.162Z,9.00
2019-03-21T07:46:41.702Z,9.02
2019-03-21T07:49:10.209Z,9.05
2019-03-21T07:51:38.701Z,9.10
2019-03-21T07:54:07.177Z,9.10
2019-03-21T07:56:37.192Z,9.11
2019-03-21T07:59:05.660Z,9.09
2019-03-21T08:01:34.138Z,9.09
2019-03-21T08:04:03.180Z,9.09
2019-03-21T08:06:31.883Z,9.16
2019-03-21T08:09:00.356Z,9.14
2019-03-21T08:11:28.872Z,9.11
2019-03-21T08:13:57.334Z,9.10
2019-03-21T08:16:25.815Z,9.17
2019-03-21T08:18:57.112Z,9.15
2019-03-21T08:21:25.585Z,9.21
2019-03-21T08:23:54.062Z,9.22
2019-03-21T08:26:22.606Z,9.22
2019-03-21T08:28:51.086Z,9.21
2019-03-21T08:31:19.575Z,9.21
2019-03-21T08:33:48.191Z,9.18
2019-03-21T08:36:16.797Z,9.19
2019-03-21T08:38:45.718Z,9.21
2019-03-21T08:41:14.257Z,9.25
2019-03-21T08:43:42.810Z,9.32
2019-03-21T08:46:11.352Z,9.31
2019-03-21T08:48:39.838Z,9.28
2019-03-21T08:51:08.994Z,9.28
2019-03-21T08:53:37.485Z,9.40
2019-03-21T08:56:06.029Z,9.34
2019-03-21T08:58:34.599Z,9.43
2019-03-21T09:01:03.125Z,9.38
2019-03-21T09:03:31.616Z,9.30
2019-03-21T09:06:00.595Z,9.31
2019-03-21T09:08:29.351Z,9.30
2019-03-21T09:10:57.829Z,9.33
2019-03-21T09:13:26.304Z,9.28
2019-03-21T09:15:54.804Z,9.33
2019-03-21T09:18:23.645Z,9.35
2019-03-21T09:20:52.117Z,9.37
2019-03-21T09:23:20.588Z,9.39
2019-03-21T09:25:51.249Z,9.36
2019-03-21T09:28:19.415Z,9.37
2019-03-21T09:30:50.416Z,9.37
2019-03-21T09:33:18.099Z,9.42
2019-03-21T09:35:46.646Z,9.46
2019-03-21T09:38:15.129Z,9.34
2019-03-21T09:40:43.683Z,9.35
2019-03-21T09:43:12.170Z,9.33
2019-03-21T09:45:40.798Z,9.34
2019-03-21T09:48:09.277Z,9.36
2019-03-21T09:50:37.761Z,9.33
2019-03-21T09:53:07.079Z,9.26
2019-03-21T09:55:35.661Z,9.24
2019-03-21T09:58:04.340Z,9.32
2019-03-21T10:00:34.377Z,9.26
2019-03-21T10:03:02.914Z,9.19
2019-03-21T10:05:32.059Z,9.19
2019-03-21T10:08:00.795Z,9.16
2019-03-21T10:10:35.370Z,9.15
2019-03-21T10:13:05.076Z,9.17
2019-03-21T10:15:33.661Z,9.12
2019-03-21T10:18:02.213Z,9.10
2019-03-21T10:20:30.699Z,9.22
2019-03-21T10:22:59.226Z,9.18
2019-03-21T10:25:27.727Z,9.20
2019-03-21T10:27:56.319Z,9.22
2019-03-21T10:30:35.973Z,9.27
2019-03-21T10:33:06.161Z,9.30
2019-03-21T10:35:34.745Z,9.33
2019-03-21T10:38:03.335Z,9.28
2019-03-21T10:40:31.897Z,9.30
2019-03-21T10:43:00.799Z,9.36
2019-03-21T10:45:29.299Z,9.36
2019-03-21T10:47:57.837Z,9.32
2019-03-21T10:50:33.878Z,9.35
2019-03-21T10:53:02.878Z,9.36
2019-03-21T10:55:31.442Z,9.35
2019-03-21T10:58:00.167Z,9.41
2019-03-21T11:00:28.803Z,9.45
2019-03-21T11:02:57.336Z,9.40
2019-03-21T11:05:25.881Z,9.49
2019-03-21T11:07:54.355Z,9.50
2019-03-21T11:10:23.100Z,9.50
2019-03-21T11:12:51.808Z,9.43
2019-03-21T11:15:20.502Z,9.51
2019-03-21T11:17:49.429Z,9.58
2019-03-21T11:20:29.863Z,9.61
2019-03-21T11:22:58.574Z,9.59
2019-03-21T11:25:27.189Z,9.65
2019-03-21T11:27:55.730Z,9.69
2019-03-21T11:30:34.930Z,9.67
2019-03-21T11:33:03.710Z,9.74
2019-03-21T11:35:32.298Z,9.80
2019-03-21T11:38:01.045Z,9.80
2019-03-21T11:40:29.518Z,9.83
2019-03-21T11:42:58.437Z,9.91
2019-03-21T11:45:26.973Z,9.91
2019-03-21T11:47:55.462Z,9.96
2019-03-21T11:50:24.117Z,10.08
2019-03-21T11:52:52.720Z,10.12
2019-03-21T11:55:29.202Z,10.06
2019-03-21T11:57:57.840Z,10.09
2019-03-21T12:00:26.358Z,10.15
2019-03-21T12:02:56.402Z,10.18
2019-03-21T12:05:24.885Z,10.16
2019-03-21T12:07:53.362Z,10.17
2019-03-21T12:10:26.901Z,10.28
2019-03-21T12:12:55.406Z,10.39
2019-03-21T12:15:24.041Z,10.42
2019-03-21T12:17:52.512Z,10.49
2019-03-21T12:20:32.252Z,10.56
2019-03-21T12:23:00.807Z,10.63
2019-03-21T12:25:29.312Z,10.68
2019-03-21T12:27:57.926Z,10.65
2019-03-21T12:30:35.477Z,10.69
2019-03-21T12:33:07.285Z,10.73
2019-03-21T12:35:35.468Z,10.69
2019-03-21T12:38:08.267Z,10.72
2019-03-21T12:40:36.922Z,10.71
2019-03-21T12:43:06.935Z,10.81
2019-03-21T12:45:35.505Z,10.82
2019-03-21T12:48:04.221Z,10.79
2019-03-21T12:50:32.716Z,10.88
2019-03-21T12:53:01.194Z,10.91
2019-03-21T12:55:29.783Z,11.00
2019-03-21T12:57:58.265Z,11.02
2019-03-21T13:00:35.413Z,11.03
2019-03-21T13:03:03.905Z,11.05
2019-03-21T13:05:32.718Z,11.10
2019-03-21T13:08:01.269Z,11.04
2019-03-21T13:10:29.747Z,11.05
2019-03-21T13:13:00.339Z,11.14
2019-03-21T13:15:30.059Z,11.14
2019-03-21T13:18:00.427Z,11.19
2019-03-21T13:20:28.946Z,11.11
2019-03-21T13:22:57.497Z,11.17
2019-03-21T13:25:26.366Z,11.19
2019-03-21T13:27:54.882Z,11.14
2019-03-21T13:30:23.639Z,11.19
2019-03-21T13:32:52.195Z,11.11
2019-03-21T13:35:31.653Z,11.17
2019-03-21T13:37:51.013Z,11.13
2019-03-21T13:40:19.666Z,11.05
2019-03-21T13:42:48.248Z,11.16
2019-03-21T13:45:20.633Z,11.19
2019-03-21T13:47:49.144Z,11.19
2019-03-21T13:50:18.801Z,11.21
2019-03-21T13:52:50.475Z,11.26
2019-03-21T13:55:20.586Z,11.27
2019-03-21T13:57:49.518Z,11.30
2019-03-21T14:00:22.068Z,11.32
2019-03-21T14:02:50.539Z,11.29
2019-03-21T14:05:19.175Z,11.29
2019-03-21T14:07:51.665Z,11.28
2019-03-21T14:10:20.428Z,11.26
2019-03-21T14:12:50.849Z,11.26
2019-03-21T14:15:19.619Z,11.29
2019-03-21T14:17:52.144Z,11.31
2019-03-21T14:20:20.889Z,11.30
2019-03-21T14:22:49.370Z,11.21
2019-03-21T14:25:19.539Z,11.27
2019-03-21T14:27:48.049Z,11.27
2019-03-21T14:30:18.129Z,11.30
2019-03-21T14:32:49.545Z,11.24
2019-03-21T14:35:18.211Z,11.27
2019-03-21T14:37:48.261Z,11.23
2019-03-21T14:40:17.826Z,11.18
2019-03-21T14:42:46.502Z,11.19
2019-03-21T14:45:16.673Z,11.23
2019-03-21T14:47:45.214Z,11.23
2019-03-21T14:50:15.278Z,11.28
2019-03-21T14:52:43.854Z,11.31
2019-03-21T14:55:14.502Z,11.23
2019-03-21T14:57:43.259Z,11.28
2019-03-21T15:00:16.387Z,11.28
2019-03-21T15:02:44.894Z,11.33
2019-03-21T15:05:13.776Z,11.32
2019-03-21T15:07:42.696Z,11.33
2019-03-21T15:10:14.383Z,11.26
2019-03-21T15:12:43.014Z,11.24
2019-03-21T15:15:13.640Z,11.28
2019-03-21T15:17:42.236Z,11.24
2019-03-21T15:20:12.918Z,11.24
2019-03-21T15:22:41.513Z,11.24
2019-03-21T15:25:10.708Z,11.21
2019-03-21T15:27:39.183Z,11.24
2019-03-21T15:30:19.615Z,11.26
2019-03-21T15:32:48.267Z,11.29
2019-03-21T15:35:18.458Z,11.25
2019-03-21T15:37:48.633Z,11.20
2019-03-21T15:40:17.603Z,11.16
2019-03-21T15:42:46.140Z,11.18
2019-03-21T15:45:23.242Z,11.19
2019-03-21T15:47:49.402Z,11.17
2019-03-21T15:50:29.135Z,11.15
2019-03-21T15:52:57.846Z,11.15
2019-03-21T15:55:26.554Z,11.15
2019-03-21T15:57:55.079Z,11.15
2019-03-21T16:00:32.235Z,11.14
2019-03-21T16:03:00.699Z,11.18
2019-03-21T16:05:29.277Z,11.16
2019-03-21T16:07:57.756Z,11.23
2019-03-21T16:10:28.796Z,11.17
2019-03-21T16:12:57.271Z,11.18
2019-03-21T16:15:25.866Z,11.10
2019-03-21T16:17:55.841Z,11.12
2019-03-21T16:20:24.469Z,11.14
2019-03-21T16:22:52.949Z,11.14
2019-03-21T16:25:21.625Z,11.12
2019-03-21T16:27:50.099Z,11.08
2019-03-21T16:30:18.846Z,11.07
2019-03-21T16:32:47.330Z,11.03
2019-03-21T16:35:16.011Z,11.02
2019-03-21T16:37:44.515Z,11.03
2019-03-21T16:40:14.421Z,10.99
2019-03-21T16:42:42.896Z,11.01
2019-03-21T16:45:15.938Z,11.01
2019-03-21T16:47:44.500Z,10.96
2019-03-21T16:50:14.330Z,10.93
2019-03-21T16:52:42.815Z,10.96
2019-03-21T16:55:12.596Z,10.94
2019-03-21T16:57:41.051Z,10.93
2019-03-21T17:00:14.415Z,10.94
2019-03-21T17:02:42.897Z,10.94
2019-03-21T17:05:11.672Z,10.90
2019-03-21T17:07:40.175Z,10.90
2019-03-21T17:10:13.694Z,10.88
2019-03-21T17:12:42.326Z,10.86
2019-03-21T17:15:12.328Z,10.82
2019-03-21T17:17:43.114Z,10.77
2019-03-21T17:20:12.494Z,10.77
2019-03-21T17:22:41.081Z,10.72
2019-03-21T17:25:10.159Z,10.71
2019-03-21T17:27:38.794Z,10.67
2019-03-21T17:30:14.939Z,10.66
2019-03-21T17:32:43.493Z,10.65
2019-03-21T17:35:12.138Z,10.65
2019-03-21T17:37:40.635Z,10.62
2019-03-21T17:40:14.046Z,10.57
2019-03-21T17:42:42.626Z,10.57
2019-03-21T17:45:14.021Z,10.54
2019-03-21T17:47:42.558Z,10.51
2019-03-21T17:50:13.341Z,10.50
2019-03-21T17:52:41.808Z,10.47
2019-03-21T17:55:10.789Z,10.45
2019-03-21T17:57:39.266Z,10.45
2019-03-21T18:00:20.163Z,10.46
2019-03-21T18:02:48.709Z,10.44
2019-03-21T18:05:17.545Z,10.38
2019-03-21T18:07:46.099Z,10.36
2019-03-21T18:10:17.702Z,10.34
2019-03-21T18:12:46.270Z,10.34
2019-03-21T18:15:15.036Z,10.33
2019-03-21T18:17:43.884Z,10.32
2019-03-21T18:20:12.518Z,10.26
2019-03-21T18:22:41.011Z,10.25
2019-03-21T18:25:12.282Z,10.24
2019-03-21T18:27:40.859Z,10.24
2019-03-21T18:30:09.868Z,10.23
2019-03-21T18:32:38.469Z,10.23
2019-03-21T18:35:07.840Z,10.21
2019-03-21T18:37:36.330Z,10.17
2019-03-21T18:40:07.399Z,10.16
2019-03-21T18:42:35.916Z,10.14
2019-03-21T18:45:05.809Z,10.10
2019-03-21T18:47:35.801Z,10.10
2019-03-21T18:50:09.794Z,10.11
2019-03-21T18:52:39.919Z,10.09
2019-03-21T18:55:08.959Z,10.09
2019-03-21T18:57:37.616Z,10.10
2019-03-21T19:00:11.972Z,10.07
2019-03-21T19:02:42.186Z,10.07
2019-03-21T19:05:10.855Z,10.03
2019-03-21T19:07:39.538Z,10.02
2019-03-21T19:10:15.016Z,9.99
2019-03-21T19:12:43.722Z,9.99
2019-03-21T19:15:14.378Z,10.00
2019-03-21T19:17:42.985Z,9.96
2019-03-21T19:20:17.207Z,9.98
2019-03-21T19:22:45.810Z,9.95
2019-03-21T19:25:19.084Z,9.93
2019-03-21T19:27:45.902Z,9.91
2019-03-21T19:30:20.141Z,9.87
2019-03-21T19:32:48.735Z,9.85
2019-03-21T19:35:17.374Z,9.80
2019-03-21T19:37:46.693Z,9.87
2019-03-21T19:40:23.046Z,9.89
2019-03-21T19:42:53.085Z,9.87
2019-03-21T19:45:24.277Z,9.88
2019-03-21T19:47:52.894Z,9.87
2019-03-21T19:50:23.665Z,9.84
2019-03-21T19:52:52.154Z,9.86
2019-03-21T19:55:30.237Z,9.85
2019-03-21T19:57:51.082Z,9.85
2019-03-21T20:00:23.410Z,9.86
2019-03-21T20:02:53.406Z,9.85
2019-03-21T20:05:22.087Z,9.80
2019-03-21T20:07:50.984Z,9.85
2019-03-21T20:10:20.877Z,9.84
2019-03-21T20:12:49.492Z,9.83
2019-03-21T20:15:18.465Z,9.83
2019-03-21T20:17:48.515Z,9.81
2019-03-21T20:20:21.473Z,9.85
2019-03-21T20:22:49.933Z,9.85
2019-03-21T20:25:18.682Z,9.87
2019-03-21T20:27:47.187Z,9.89
2019-03-21T20:30:21.615Z,9.90
2019-03-21T20:32:50.101Z,9.89
2019-03-21T20:35:18.744Z,9.90
2019-03-21T20:37:47.394Z,9.89
2019-03-21T20:40:20.132Z,9.88
2019-03-21T20:42:48.744Z,9.87
2019-03-21T20:45:18.839Z,9.85
2019-03-21T20:47:47.698Z,9.83
2019-03-21T20:50:16.785Z,9.76
2019-03-21T20:52:45.332Z,9.75
2019-03-21T20:55:15.267Z,9.76
2019-03-21T20:57:45.300Z,9.78
2019-03-21T21:00:21.981Z,9.76
2019-03-21T21:02:50.896Z,9.77
2019-03-21T21:05:19.584Z,9.74
2019-03-21T21:07:48.282Z,9.74
2019-03-21T21:10:16.995Z,9.74
2019-03-21T21:12:45.555Z,9.74
2019-03-21T21:15:17.982Z,9.74
2019-03-21T21:17:46.559Z,9.72
2019-03-21T21:20:16.827Z,9.73
2019-03-21T21:22:45.379Z,9.73
2019-03-21T21:25:14.563Z,9.72
2019-03-21T21:27:49.577Z,9.72
2019-03-21T21:30:19.279Z,9.73
2019-03-21T21:32:47.894Z,9.73
2019-03-21T21:35:16.646Z,9.70
2019-03-21T21:37:45.599Z,9.71
2019-03-21T21:40:16.605Z,9.69
2019-03-21T21:42:45.158Z,9.70
2019-03-21T21:45:16.004Z,9.70
2019-03-21T21:47:44.699Z,9.70
2019-03-21T21:50:15.376Z,9.68
2019-03-21T21:52:46.858Z,9.68
2019-03-21T21:55:15.633Z,9.68
2019-03-21T21:57:44.092Z,9.68
2019-03-21T22:00:17.788Z,9.66
2019-03-21T22:02:46.309Z,9.65
2019-03-21T22:05:15.020Z,9.65
2019-03-21T22:07:43.551Z,9.63
2019-03-21T22:10:13.241Z,9.61
2019-03-21T22:12:41.776Z,9.61
2019-03-21T22:15:15.148Z,9.59
2019-03-21T22:17:43.654Z,9.61
2019-03-21T22:20:16.347Z,9.62
2019-03-21T22:22:46.797Z,9.60
2019-03-21T22:25:15.594Z,9.59
2019-03-21T22:27:44.123Z,9.59
2019-03-21T22:30:15.122Z,9.62
2019-03-21T22:32:43.844Z,9.62
2019-03-21T22:35:12.472Z,9.62
2019-03-21T22:37:41.076Z,9.61
2019-03-21T22:40:11.501Z,9.61
2019-03-21T22:42:39.983Z,9.59
2019-03-21T22:45:11.488Z,9.58
2019-03-21T22:47:40.039Z,9.59
2019-03-21T22:50:19.090Z,9.55
2019-03-21T22:52:47.746Z,9.52
2019-03-21T22:55:16.394Z,9.50
2019-03-21T22:57:44.946Z,9.52
2019-03-21T23:00:16.483Z,9.56
2019-03-21T23:02:45.031Z,9.54
2019-03-21T23:05:14.150Z,9.56
2019-03-21T23:07:42.616Z,9.53
2019-03-21T23:10:11.757Z,9.54
2019-03-21T23:12:40.382Z,9.53
2019-03-21T23:15:11.210Z,9.53
2019-03-21T23:17:39.735Z,9.51
2019-03-21T23:20:14.073Z,9.53
2019-03-21T23:22:42.812Z,9.51
2019-03-21T23:25:13.185Z,9.48
2019-03-21T23:27:41.647Z,9.51
2019-03-21T23:30:15.922Z,9.46
2019-03-21T23:32:44.568Z,9.46
2019-03-21T23:35:14.116Z,9.48
2019-03-21T23:37:42.663Z,9.46
2019-03-21T23:40:15.612Z,9.46
2019-03-21T23:42:44.417Z,9.48
2019-03-21T23:45:14.443Z,9.45
2019-03-21T23:47:43.038Z,9.40
2019-03-21T23:50:13.665Z,9.37
2019-03-21T23:52:42.207Z,9.34
2019-03-21T23:55:11.692Z,9.34
2019-03-21T23:57:40.227Z,9.37
